Time;durP1;ratioP1;P1;durP2;ratioP2;P2;SDS_P1;SDS_P2;PMS_P1;PMS_P2;Temp;Humidity;BMP_temperature;BMP_pressure;BME280_temperature;BME280_humidity;BME280_pressure;Samples;Min_cycle;Max_cycle;Signal;HPM_P1;HPM_P2
2023/06/27 00:01:23;;;;;;;2.17;1.97;;;;;;;;;;5085600;28;20244;-79
2023/06/27 00:03:51;;;;;;;2.90;2.33;;;;;;;;;;5086129;28;20279;-80
2023/06/27 00:06:20;;;;;;;3.10;2.20;;;;;;;;;;5086942;28;20271;-80
2023/06/27 00:08:47;;;;;;;2.60;2.40;;;;;;;;;;5088937;28;20682;-79
2023/06/27 00:11:13;;;;;;;2.50;2.20;;;;;;;;;;5080155;28;20183;-79
2023/06/27 00:13:41;;;;;;;2.27;2.17;;;;;;;;;;5085836;28;20190;-80
2023/06/27 00:16:12;;;;;;;2.70;2.47;;;;;;;;;;5089086;28;20234;-80
2023/06/27 00:18:38;;;;;;;2.27;2.10;;;;;;;;;;5086696;28;20213;-80
2023/06/27 00:21:05;;;;;;;2.40;2.20;;;;;;;;;;5107428;28;20616;-80
2023/06/27 00:23:33;;;;;;;2.23;2.03;;;;;;;;;;5089593;28;20248;-79
2023/06/27 00:26:00;;;;;;;2.50;2.30;;;;;;;;;;5093267;28;20184;-79
2023/06/27 00:28:27;;;;;;;2.43;2.20;;;;;;;;;;5084725;28;20208;-79
2023/06/27 00:30:53;;;;;;;2.07;1.97;;;;;;;;;;5077706;28;20624;-79
2023/06/27 00:33:19;;;;;;;2.10;2.00;;;;;;;;;;5092185;28;20168;-79
2023/06/27 00:35:45;;;;;;;2.20;2.10;;;;;;;;;;5085609;28;20181;-79
2023/06/27 00:38:12;;;;;;;2.60;2.40;;;;;;;;;;5091939;28;20188;-79
2023/06/27 00:40:38;;;;;;;2.70;2.07;;;;;;;;;;5085085;28;20187;-79
2023/06/27 00:43:04;;;;;;;2.23;2.10;;;;;;;;;;5085056;28;20207;-80
2023/06/27 00:45:30;;;;;;;2.37;2.17;;;;;;;;;;5084241;28;20219;-80
2023/06/27 00:47:56;;;;;;;2.67;2.47;;;;;;;;;;5090544;28;20517;-80
2023/06/27 00:50:23;;;;;;;2.10;1.90;;;;;;;;;;5086152;28;20204;-79
2023/06/27 00:52:50;;;;;;;2.63;2.07;;;;;;;;;;5085747;28;20204;-80
2023/06/27 00:55:17;;;;;;;2.90;2.70;;;;;;;;;;5085029;28;20207;-80
2023/06/27 00:57:44;;;;;;;2.67;2.47;;;;;;;;;;5092127;28;20203;-80
2023/06/27 01:00:11;;;;;;;2.97;2.77;;;;;;;;;;5090921;28;20203;-80
2023/06/27 01:02:38;;;;;;;2.53;2.43;;;;;;;;;;5079410;28;20188;-79
2023/06/27 01:05:05;;;;;;;2.10;2.00;;;;;;;;;;5074263;28;20381;-80
2023/06/27 01:07:35;;;;;;;2.80;2.33;;;;;;;;;;5081079;28;20685;-80
2023/06/27 01:10:03;;;;;;;2.57;2.37;;;;;;;;;;5083202;28;20173;-80
2023/06/27 01:12:39;;;;;;;2.50;2.30;;;;;;;;;;5084411;28;20417;-79
2023/06/27 01:15:06;;;;;;;2.83;2.47;;;;;;;;;;5089052;28;20902;-80
2023/06/27 01:17:34;;;;;;;2.60;2.40;;;;;;;;;;5087537;28;20283;-79
2023/06/27 01:20:01;;;;;;;2.33;2.13;;;;;;;;;;5082861;28;20184;-80
2023/06/27 01:22:29;;;;;;;2.27;2.07;;;;;;;;;;5090164;28;20187;-79
2023/06/27 01:24:55;;;;;;;3.97;2.63;;;;;;;;;;5080704;28;20676;-79
2023/06/27 01:27:21;;;;;;;4.07;2.23;;;;;;;;;;5089214;28;20204;-80
2023/06/27 01:29:47;;;;;;;2.80;2.60;;;;;;;;;;5082556;28;20191;-80
2023/06/27 01:32:26;;;;;;;2.73;2.30;;;;;;;;;;5078831;28;20212;-80
2023/06/27 01:35:04;;;;;;;3.27;2.40;;;;;;;;;;5077532;28;20740;-79
2023/06/27 01:37:30;;;;;;;2.53;2.33;;;;;;;;;;5083369;28;20714;-80
2023/06/27 01:39:56;;;;;;;2.73;2.23;;;;;;;;;;5088602;28;20277;-79
2023/06/27 01:42:28;;;;;;;5.80;2.30;;;;;;;;;;5081663;28;20180;-79
2023/06/27 01:44:55;;;;;;;2.47;2.27;;;;;;;;;;5082508;28;20319;-79
2023/06/27 01:47:22;;;;;;;3.60;2.20;;;;;;;;;;5085977;28;20202;-79
2023/06/27 01:49:48;;;;;;;2.60;2.40;;;;;;;;;;5087874;28;20187;-79
2023/06/27 01:52:14;;;;;;;2.63;2.43;;;;;;;;;;5080720;28;20631;-79
2023/06/27 01:54:44;;;;;;;2.53;2.23;;;;;;;;;;5085214;28;20210;-79
2023/06/27 01:57:10;;;;;;;4.73;2.30;;;;;;;;;;5085421;28;20190;-79
2023/06/27 01:59:36;;;;;;;2.53;2.33;;;;;;;;;;5082585;28;20220;-80
2023/06/27 02:02:03;;;;;;;2.60;2.40;;;;;;;;;;5084931;28;20361;-80
2023/06/27 02:04:29;;;;;;;4.80;2.37;;;;;;;;;;5087276;28;20230;-80
2023/06/27 02:06:55;;;;;;;2.50;2.30;;;;;;;;;;5085081;28;20199;-79
2023/06/27 02:09:21;;;;;;;2.53;2.33;;;;;;;;;;5089575;28;20191;-79
2023/06/27 02:11:47;;;;;;;2.53;2.33;;;;;;;;;;5080885;28;20583;-79
2023/06/27 02:14:23;;;;;;;2.40;2.20;;;;;;;;;;5084137;28;20531;-80
2023/06/27 02:16:49;;;;;;;2.77;2.40;;;;;;;;;;5080240;28;20183;-79
2023/06/27 02:19:16;;;;;;;2.63;2.37;;;;;;;;;;5082979;28;20179;-80
2023/06/27 02:21:42;;;;;;;2.60;2.40;;;;;;;;;;5078655;28;20519;-80
2023/06/27 02:24:08;;;;;;;3.13;2.73;;;;;;;;;;5080623;28;20595;-79
2023/06/27 02:26:34;;;;;;;3.00;2.53;;;;;;;;;;5084617;28;20190;-79
2023/06/27 02:29:00;;;;;;;2.67;2.47;;;;;;;;;;5079676;28;20194;-79
2023/06/27 02:31:26;;;;;;;2.87;2.30;;;;;;;;;;5088732;28;20189;-80
2023/06/27 02:33:52;;;;;;;2.90;2.60;;;;;;;;;;5080563;28;20315;-80
2023/06/27 02:36:18;;;;;;;2.50;2.33;;;;;;;;;;5080904;28;20605;-80
2023/06/27 02:38:44;;;;;;;2.50;2.23;;;;;;;;;;5082405;28;20234;-80
2023/06/27 02:41:10;;;;;;;2.83;2.63;;;;;;;;;;5085375;28;20197;-80
2023/06/27 02:43:37;;;;;;;3.30;3.00;;;;;;;;;;5079306;28;20180;-80
2023/06/27 02:46:03;;;;;;;2.70;2.50;;;;;;;;;;5086347;28;20231;-80
2023/06/27 02:48:29;;;;;;;2.80;2.60;;;;;;;;;;5088032;28;20204;-80
2023/06/27 02:50:56;;;;;;;2.83;2.20;;;;;;;;;;5088040;28;20176;-79
2023/06/27 02:53:22;;;;;;;2.93;2.30;;;;;;;;;;5089797;28;20620;-79
2023/06/27 02:55:48;;;;;;;2.40;2.20;;;;;;;;;;5081072;28;20188;-79
2023/06/27 02:58:14;;;;;;;3.73;3.53;;;;;;;;;;5084553;28;20712;-80
2023/06/27 03:00:41;;;;;;;4.77;2.70;;;;;;;;;;5082021;28;21683;-80
2023/06/27 03:03:07;;;;;;;3.73;3.23;;;;;;;;;;5079967;28;20181;-79
2023/06/27 03:05:33;;;;;;;3.90;2.30;;;;;;;;;;5084665;28;20279;-79
2023/06/27 03:07:59;;;;;;;3.33;2.50;;;;;;;;;;5078579;28;20379;-80
2023/06/27 03:10:25;;;;;;;2.50;2.27;;;;;;;;;;5081555;28;20623;-80
2023/06/27 03:12:51;;;;;;;4.67;2.97;;;;;;;;;;5075859;28;20185;-80
2023/06/27 03:15:17;;;;;;;2.40;2.20;;;;;;;;;;5086568;28;20878;-80
2023/06/27 03:17:43;;;;;;;2.67;2.47;;;;;;;;;;5093365;28;20187;-80
2023/06/27 03:20:09;;;;;;;2.23;2.03;;;;;;;;;;5082963;28;20180;-79
2023/06/27 03:22:38;;;;;;;2.70;2.50;;;;;;;;;;5094007;28;20217;-79
2023/06/27 03:25:06;;;;;;;2.83;2.57;;;;;;;;;;5088684;28;20263;-80
2023/06/27 03:27:32;;;;;;;2.20;2.10;;;;;;;;;;5085669;28;20313;-79
2023/06/27 03:29:58;;;;;;;3.93;2.50;;;;;;;;;;5090227;28;20235;-79
2023/06/27 03:32:24;;;;;;;3.07;2.40;;;;;;;;;;5090971;28;20345;-80
2023/06/27 03:34:51;;;;;;;2.47;2.30;;;;;;;;;;5089151;28;20613;-80
2023/06/27 03:37:19;;;;;;;2.50;2.10;;;;;;;;;;5092345;28;20184;-79
2023/06/27 03:39:45;;;;;;;2.60;2.40;;;;;;;;;;5090859;28;20221;-79
2023/06/27 03:42:11;;;;;;;2.30;2.10;;;;;;;;;;5090390;28;20644;-79
2023/06/27 03:44:37;;;;;;;2.50;2.30;;;;;;;;;;5087382;28;20227;-79
2023/06/27 03:47:04;;;;;;;3.23;1.97;;;;;;;;;;5085844;28;20666;-79
2023/06/27 03:49:30;;;;;;;2.93;2.37;;;;;;;;;;5091000;28;20182;-79
2023/06/27 03:51:56;;;;;;;3.30;2.30;;;;;;;;;;5085651;28;20187;-79
2023/06/27 03:54:22;;;;;;;2.67;2.47;;;;;;;;;;5093680;28;20207;-79
2023/06/27 03:56:49;;;;;;;3.03;2.30;;;;;;;;;;5088308;28;20184;-79
2023/06/27 03:59:15;;;;;;;2.57;2.37;;;;;;;;;;5088401;28;20628;-80
2023/06/27 04:01:41;;;;;;;3.30;2.33;;;;;;;;;;5090862;28;20184;-79
2023/06/27 04:04:07;;;;;;;2.53;2.33;;;;;;;;;;5086780;28;20671;-79
2023/06/27 04:06:34;;;;;;;2.63;2.43;;;;;;;;;;5088304;28;20180;-80
2023/06/27 04:09:02;;;;;;;2.93;2.60;;;;;;;;;;5087001;28;20188;-80
2023/06/27 04:11:28;;;;;;;3.10;2.90;;;;;;;;;;5082916;28;20316;-79
2023/06/27 04:13:56;;;;;;;2.30;2.10;;;;;;;;;;5090931;28;20172;-79
2023/06/27 04:16:22;;;;;;;2.30;2.10;;;;;;;;;;5085025;28;20555;-80
2023/06/27 04:18:48;;;;;;;2.43;2.23;;;;;;;;;;5093824;28;20184;-79
2023/06/27 04:21:14;;;;;;;2.93;2.73;;;;;;;;;;5088919;28;20230;-79
2023/06/27 04:23:40;;;;;;;3.60;2.53;;;;;;;;;;5091041;28;20190;-80
2023/06/27 04:26:15;;;;;;;2.73;2.53;;;;;;;;;;5085033;28;20184;-79
2023/06/27 04:28:43;;;;;;;2.63;2.43;;;;;;;;;;5089480;28;20229;-79
2023/06/27 04:31:09;;;;;;;2.70;2.50;;;;;;;;;;5082914;28;20207;-80
2023/06/27 04:33:39;;;;;;;2.40;2.00;;;;;;;;;;5091537;28;20186;-79
2023/06/27 04:36:05;;;;;;;2.53;2.30;;;;;;;;;;5089613;28;20249;-79
2023/06/27 04:38:39;;;;;;;3.07;2.67;;;;;;;;;;5091916;28;20190;-79
2023/06/27 04:41:06;;;;;;;2.50;2.40;;;;;;;;;;5085487;28;21073;-79
2023/06/27 04:43:32;;;;;;;2.90;2.40;;;;;;;;;;5091120;28;20319;-79
2023/06/27 04:45:59;;;;;;;2.70;2.50;;;;;;;;;;5085153;28;20199;-79
2023/06/27 04:48:25;;;;;;;2.80;2.60;;;;;;;;;;5091620;28;20225;-87
2023/06/27 04:50:51;;;;;;;2.57;2.00;;;;;;;;;;5089832;28;20239;-88
2023/06/27 04:53:20;;;;;;;3.43;2.47;;;;;;;;;;5105609;28;20725;-87
2023/06/27 04:55:47;;;;;;;2.73;2.53;;;;;;;;;;5085491;28;20233;-88
2023/06/27 04:58:13;;;;;;;2.70;2.50;;;;;;;;;;5086816;28;20192;-89
2023/06/27 05:00:39;;;;;;;3.97;2.83;;;;;;;;;;5089341;28;20188;-89
2023/06/27 05:03:05;;;;;;;2.80;2.60;;;;;;;;;;5092980;28;20655;-88
2023/06/27 05:05:34;;;;;;;4.50;2.50;;;;;;;;;;5082162;28;20185;-90
2023/06/27 05:08:03;;;;;;;2.70;2.40;;;;;;;;;;5088898;28;20251;-89
2023/06/27 05:10:33;;;;;;;3.53;2.47;;;;;;;;;;5091331;28;20184;-88
2023/06/27 05:12:59;;;;;;;3.73;2.40;;;;;;;;;;5090190;28;20182;-88
2023/06/27 05:15:25;;;;;;;4.00;2.67;;;;;;;;;;5091354;28;20184;-88
2023/06/27 05:18:15;;;;;;;4.10;2.70;;;;;;;;;;5089977;28;20209;-89
2023/06/27 05:20:44;;;;;;;3.43;2.73;;;;;;;;;;5086646;28;20624;-88
2023/06/27 05:23:10;;;;;;;2.63;2.43;;;;;;;;;;5093710;28;20233;-87
2023/06/27 05:25:37;;;;;;;3.67;2.47;;;;;;;;;;5084166;28;20195;-90
2023/06/27 05:28:03;;;;;;;4.00;2.63;;;;;;;;;;5082810;28;20660;-89
2023/06/27 05:30:29;;;;;;;2.63;2.43;;;;;;;;;;5091722;28;20252;-87
2023/06/27 05:32:57;;;;;;;3.37;2.87;;;;;;;;;;5089803;28;20539;-89
2023/06/27 05:35:23;;;;;;;2.73;2.53;;;;;;;;;;5081651;28;20727;-89
2023/06/27 05:37:49;;;;;;;4.13;2.57;;;;;;;;;;5089296;28;20183;-89
2023/06/27 05:40:16;;;;;;;4.47;2.70;;;;;;;;;;5091841;28;20528;-89
2023/06/27 05:42:42;;;;;;;4.67;3.00;;;;;;;;;;5085637;28;20188;-88
2023/06/27 05:45:08;;;;;;;3.60;2.70;;;;;;;;;;5093838;28;20184;-88
2023/06/27 05:47:34;;;;;;;3.53;2.40;;;;;;;;;;5093523;28;20651;-90
2023/06/27 05:50:00;;;;;;;3.83;2.77;;;;;;;;;;5083429;28;20191;-88
2023/06/27 05:52:29;;;;;;;3.43;2.63;;;;;;;;;;5091414;28;20275;-89
2023/06/27 05:54:55;;;;;;;3.13;2.83;;;;;;;;;;5092692;28;20207;-89
2023/06/27 05:57:22;;;;;;;3.23;2.70;;;;;;;;;;5091112;28;20188;-88
2023/06/27 05:59:48;;;;;;;4.83;3.07;;;;;;;;;;5089165;28;20192;-88
2023/06/27 06:02:14;;;;;;;4.17;3.30;;;;;;;;;;5107242;28;20292;-89
2023/06/27 06:04:40;;;;;;;5.90;2.90;;;;;;;;;;5092190;28;20588;-89
2023/06/27 06:07:06;;;;;;;3.33;2.87;;;;;;;;;;5087123;28;20671;-89
2023/06/27 06:09:32;;;;;;;5.33;3.13;;;;;;;;;;5092039;28;20275;-90
2023/06/27 06:11:58;;;;;;;4.40;3.50;;;;;;;;;;5083307;28;20574;-89
2023/06/27 06:14:24;;;;;;;4.10;3.37;;;;;;;;;;5086438;28;20876;-90
2023/06/27 06:16:50;;;;;;;4.37;3.10;;;;;;;;;;5087892;28;20509;-91
2023/06/27 06:19:17;;;;;;;3.87;2.93;;;;;;;;;;5107547;28;20176;-90
2023/06/27 06:21:43;;;;;;;4.77;3.47;;;;;;;;;;5084778;28;20214;-90
2023/06/27 06:24:09;;;;;;;5.50;3.40;;;;;;;;;;5087574;28;20182;-89
2023/06/27 06:26:35;;;;;;;4.77;3.20;;;;;;;;;;5087593;28;20211;-89
2023/06/27 06:29:05;;;;;;;6.87;3.53;;;;;;;;;;5086047;28;20204;-88
2023/06/27 06:31:31;;;;;;;4.83;3.47;;;;;;;;;;5083769;28;20570;-82
2023/06/27 06:33:57;;;;;;;6.63;3.83;;;;;;;;;;5085810;28;20183;-82
2023/06/27 06:36:26;;;;;;;5.57;3.23;;;;;;;;;;5082671;28;20187;-82
2023/06/27 06:38:52;;;;;;;7.43;3.97;;;;;;;;;;5089763;28;20266;-82
2023/06/27 06:41:18;;;;;;;6.60;3.53;;;;;;;;;;5088814;28;20968;-82
2023/06/27 06:43:45;;;;;;;5.20;3.70;;;;;;;;;;5093096;28;20308;-83
2023/06/27 06:46:11;;;;;;;6.00;3.27;;;;;;;;;;5080755;28;20191;-83
2023/06/27 06:48:37;;;;;;;5.60;3.87;;;;;;;;;;5087633;28;20226;-82
2023/06/27 06:51:03;;;;;;;6.50;4.23;;;;;;;;;;5085264;28;20176;-82
2023/06/27 06:53:29;;;;;;;8.07;4.10;;;;;;;;;;5091570;28;20246;-82
2023/06/27 06:55:55;;;;;;;7.27;4.40;;;;;;;;;;5092092;28;20207;-82
2023/06/27 06:58:21;;;;;;;6.80;4.07;;;;;;;;;;5107218;28;20210;-82
2023/06/27 07:00:47;;;;;;;6.17;4.60;;;;;;;;;;5083871;28;20189;-82
2023/06/27 07:03:14;;;;;;;8.40;4.17;;;;;;;;;;5087207;28;20221;-82
2023/06/27 07:05:43;;;;;;;8.87;4.23;;;;;;;;;;5090953;28;20313;-82
2023/06/27 07:08:09;;;;;;;9.20;4.33;;;;;;;;;;5092684;28;20204;-83
2023/06/27 07:10:35;;;;;;;8.13;4.50;;;;;;;;;;5096110;28;20288;-87
2023/06/27 07:13:01;;;;;;;7.33;4.20;;;;;;;;;;5092657;28;20280;-86
2023/06/27 07:15:28;;;;;;;10.83;4.40;;;;;;;;;;5090138;28;20191;-85
2023/06/27 07:17:54;;;;;;;11.13;4.37;;;;;;;;;;5090951;28;20183;-84
2023/06/27 07:20:22;;;;;;;9.00;4.50;;;;;;;;;;5092754;28;20187;-85
2023/06/27 07:22:48;;;;;;;8.67;4.00;;;;;;;;;;5096470;28;20259;-86
2023/06/27 07:25:14;;;;;;;7.10;4.30;;;;;;;;;;5088998;28;20202;-85
2023/06/27 07:27:40;;;;;;;10.47;4.80;;;;;;;;;;5089423;28;20244;-86
2023/06/27 07:30:06;;;;;;;9.03;4.83;;;;;;;;;;5093787;28;20179;-85
2023/06/27 07:32:32;;;;;;;7.00;4.37;;;;;;;;;;5096528;28;20182;-86
2023/06/27 07:34:58;;;;;;;7.83;4.33;;;;;;;;;;5095181;28;20285;-89
2023/06/27 07:37:24;;;;;;;11.57;4.93;;;;;;;;;;5095807;28;20197;-88
2023/06/27 07:39:50;;;;;;;6.70;4.10;;;;;;;;;;5094598;28;20593;-88
2023/06/27 07:42:17;;;;;;;6.93;4.43;;;;;;;;;;5098227;28;20182;-90
2023/06/27 07:44:43;;;;;;;9.20;4.60;;;;;;;;;;5095292;28;20194;-80
2023/06/27 07:47:09;;;;;;;8.30;4.90;;;;;;;;;;5089242;28;20702;-84
2023/06/27 07:49:37;;;;;;;7.60;3.83;;;;;;;;;;5089508;28;20235;-83
2023/06/27 07:52:03;;;;;;;9.83;5.47;;;;;;;;;;5096082;28;20268;-84
2023/06/27 07:54:29;;;;;;;8.33;4.47;;;;;;;;;;5086783;28;20689;-83
2023/06/27 07:56:56;;;;;;;6.73;4.93;;;;;;;;;;5092182;28;20165;-84
2023/06/27 07:59:22;;;;;;;7.93;3.70;;;;;;;;;;5093421;28;20186;-84
2023/06/27 08:01:48;;;;;;;8.27;4.67;;;;;;;;;;5087043;28;20188;-84
2023/06/27 08:04:15;;;;;;;9.00;3.97;;;;;;;;;;5094341;28;20225;-87
2023/06/27 08:06:41;;;;;;;7.87;3.67;;;;;;;;;;5092443;28;20181;-84
2023/06/27 08:09:07;;;;;;;9.37;5.03;;;;;;;;;;5090631;28;20204;-84
2023/06/27 08:11:33;;;;;;;9.43;3.90;;;;;;;;;;5090250;28;20188;-85
2023/06/27 08:13:59;;;;;;;11.47;4.20;;;;;;;;;;5086091;28;20182;-84
2023/06/27 08:16:25;;;;;;;8.40;3.90;;;;;;;;;;5086439;28;20185;-84
2023/06/27 08:18:51;;;;;;;7.67;3.97;;;;;;;;;;5093738;28;20200;-84
2023/06/27 08:21:17;;;;;;;7.50;4.60;;;;;;;;;;5079223;28;20178;-85
2023/06/27 08:23:44;;;;;;;7.00;4.30;;;;;;;;;;5085952;28;20193;-84
2023/06/27 08:26:14;;;;;;;5.07;4.00;;;;;;;;;;5086899;28;20210;-84
2023/06/27 08:28:40;;;;;;;6.80;3.50;;;;;;;;;;5086933;28;20619;-84
2023/06/27 08:31:06;;;;;;;9.47;3.60;;;;;;;;;;5082521;28;20178;-84
2023/06/27 08:33:32;;;;;;;5.07;3.60;;;;;;;;;;5082564;28;20284;-84
2023/06/27 08:35:58;;;;;;;5.03;3.67;;;;;;;;;;5105931;28;20242;-82
2023/06/27 08:38:24;;;;;;;6.80;3.77;;;;;;;;;;5087609;28;20715;-83
2023/06/27 08:40:54;;;;;;;7.00;4.00;;;;;;;;;;5093379;28;20266;-85
2023/06/27 08:43:20;;;;;;;6.97;3.90;;;;;;;;;;5091527;28;20637;-83
2023/06/27 08:45:46;;;;;;;9.03;4.13;;;;;;;;;;5085835;28;20685;-84
2023/06/27 08:48:13;;;;;;;5.70;3.67;;;;;;;;;;5088503;28;20197;-84
2023/06/27 08:50:40;;;;;;;6.00;3.90;;;;;;;;;;5092612;28;20185;-82
2023/06/27 08:53:08;;;;;;;8.00;3.60;;;;;;;;;;5094131;28;21315;-82
2023/06/27 08:55:43;;;;;;;7.03;3.60;;;;;;;;;;5092083;28;20235;-81
2023/06/27 08:58:13;;;;;;;8.13;4.10;;;;;;;;;;5100372;28;20202;-86
2023/06/27 09:00:40;;;;;;;6.37;3.83;;;;;;;;;;5107733;28;20182;-84
2023/06/27 09:03:08;;;;;;;5.63;3.00;;;;;;;;;;5104820;28;20173;-84
2023/06/27 09:05:34;;;;;;;6.70;3.10;;;;;;;;;;5096816;28;20252;-82
2023/06/27 09:08:00;;;;;;;4.97;2.93;;;;;;;;;;5091121;28;20657;-82
2023/06/27 09:10:26;;;;;;;6.47;3.50;;;;;;;;;;5091960;28;20182;-82
2023/06/27 09:12:56;;;;;;;6.53;3.57;;;;;;;;;;5092227;28;20180;-82
2023/06/27 09:15:23;;;;;;;6.47;3.40;;;;;;;;;;5088235;28;20213;-82
2023/06/27 09:17:50;;;;;;;5.57;3.10;;;;;;;;;;5091565;28;20595;-83
2023/06/27 09:20:17;;;;;;;7.53;4.07;;;;;;;;;;5091887;28;20231;-82
2023/06/27 09:22:43;;;;;;;5.53;3.17;;;;;;;;;;5092495;28;20183;-82
2023/06/27 09:25:14;;;;;;;6.40;3.43;;;;;;;;;;5096559;28;20193;-83
2023/06/27 09:27:40;;;;;;;5.53;2.50;;;;;;;;;;5096513;28;20194;-83
2023/06/27 09:30:10;;;;;;;5.90;3.23;;;;;;;;;;5092422;28;20181;-83
2023/06/27 09:32:57;;;;;;;4.80;2.80;;;;;;;;;;5089114;28;20240;-83
2023/06/27 09:35:23;;;;;;;7.60;3.67;;;;;;;;;;5093752;28;20263;-83
2023/06/27 09:37:50;;;;;;;7.93;3.33;;;;;;;;;;5094903;28;20256;-83
2023/06/27 09:40:18;;;;;;;6.00;2.80;;;;;;;;;;5095816;28;20221;-83
2023/06/27 09:43:13;;;;;;;6.20;3.13;;;;;;;;;;5097387;28;20212;-82
2023/06/27 09:45:39;;;;;;;4.57;2.63;;;;;;;;;;5086998;28;20268;-82
2023/06/27 09:48:08;;;;;;;5.20;2.63;;;;;;;;;;5089515;28;20286;-83
2023/06/27 09:50:34;;;;;;;3.97;2.53;;;;;;;;;;5094417;28;20188;-78
2023/06/27 09:53:02;;;;;;;5.80;2.50;;;;;;;;;;5096962;28;20537;-82
2023/06/27 09:55:29;;;;;;;3.23;2.23;;;;;;;;;;5095282;28;20211;-81
2023/06/27 09:57:55;;;;;;;5.63;2.60;;;;;;;;;;5097811;28;20380;-81
2023/06/27 10:00:22;;;;;;;4.00;2.70;;;;;;;;;;5090444;28;20651;-81
2023/06/27 10:02:52;;;;;;;5.40;2.47;;;;;;;;;;5097931;28;20560;-80
2023/06/27 10:05:19;;;;;;;4.00;2.33;;;;;;;;;;5101314;28;20199;-81
2023/06/27 10:07:47;;;;;;;3.97;2.47;;;;;;;;;;5094252;28;20308;-79
2023/06/27 10:10:15;;;;;;;3.43;2.17;;;;;;;;;;5092161;28;20182;-84
2023/06/27 10:12:42;;;;;;;2.47;2.27;;;;;;;;;;5094807;28;20172;-81
2023/06/27 10:15:08;;;;;;;3.97;2.53;;;;;;;;;;5095593;28;20232;-79
2023/06/27 10:17:35;;;;;;;3.67;2.40;;;;;;;;;;5087825;28;20625;-79
2023/06/27 10:20:03;;;;;;;3.43;2.53;;;;;;;;;;5090160;28;20195;-82
2023/06/27 10:22:30;;;;;;;4.77;2.73;;;;;;;;;;5088630;28;20187;-82
2023/06/27 10:25:00;;;;;;;2.67;2.30;;;;;;;;;;5107517;28;20180;-80
2023/06/27 10:27:26;;;;;;;3.90;2.43;;;;;;;;;;5087430;28;20242;-82
2023/06/27 10:29:52;;;;;;;3.93;2.87;;;;;;;;;;5089727;28;20180;-81
2023/06/27 10:32:19;;;;;;;4.63;2.60;;;;;;;;;;5089321;28;20175;-79
2023/06/27 10:34:45;;;;;;;5.67;2.73;;;;;;;;;;5081679;28;20188;-78
2023/06/27 10:37:12;;;;;;;2.77;2.30;;;;;;;;;;5087556;28;20180;-78
2023/06/27 10:39:40;;;;;;;5.83;2.80;;;;;;;;;;5081549;28;20509;-78
2023/06/27 10:42:06;;;;;;;3.87;2.77;;;;;;;;;;5081280;28;20172;-80
2023/06/27 10:44:35;;;;;;;5.07;2.90;;;;;;;;;;5081053;28;20656;-80
2023/06/27 10:47:16;;;;;;;6.13;2.73;;;;;;;;;;5089365;28;20200;-80
2023/06/27 10:49:49;;;;;;;5.83;3.20;;;;;;;;;;5083402;28;20190;-80
2023/06/27 10:52:25;;;;;;;3.33;3.00;;;;;;;;;;5088356;28;20195;-80
2023/06/27 10:55:09;;;;;;;3.67;2.73;;;;;;;;;;5090793;28;20288;-80
2023/06/27 10:57:39;;;;;;;4.57;2.53;;;;;;;;;;5088944;28;20192;-80
2023/06/27 11:00:14;;;;;;;4.50;2.80;;;;;;;;;;5084083;28;20194;-80
2023/06/27 11:02:44;;;;;;;6.13;2.63;;;;;;;;;;5081283;28;20198;-81
2023/06/27 11:05:16;;;;;;;5.63;3.03;;;;;;;;;;5084662;28;20703;-81
2023/06/27 11:07:52;;;;;;;5.53;2.93;;;;;;;;;;5099082;28;20199;-80
2023/06/27 11:10:26;;;;;;;4.50;3.17;;;;;;;;;;5077677;28;20176;-81
2023/06/27 11:12:52;;;;;;;4.33;2.57;;;;;;;;;;5086151;28;20272;-81
2023/06/27 11:15:18;;;;;;;4.97;2.97;;;;;;;;;;5088764;28;20176;-80
2023/06/27 11:17:46;;;;;;;5.10;2.70;;;;;;;;;;5088575;28;20253;-80
2023/06/27 11:20:16;;;;;;;6.83;3.37;;;;;;;;;;5079017;28;20184;-81
2023/06/27 11:22:43;;;;;;;6.23;2.73;;;;;;;;;;5091245;28;20214;-80
2023/06/27 11:25:15;;;;;;;4.13;2.37;;;;;;;;;;5107173;28;20208;-81
2023/06/27 11:27:41;;;;;;;3.73;2.37;;;;;;;;;;5090065;28;20301;-80
2023/06/27 11:30:08;;;;;;;7.53;3.13;;;;;;;;;;5086750;28;20546;-80
2023/06/27 11:32:35;;;;;;;4.17;2.80;;;;;;;;;;5084894;28;20188;-81
2023/06/27 11:35:01;;;;;;;3.93;2.70;;;;;;;;;;5083709;28;20181;-81
2023/06/27 11:37:27;;;;;;;3.67;2.83;;;;;;;;;;5081245;28;20184;-81
2023/06/27 11:39:56;;;;;;;5.57;3.30;;;;;;;;;;5085615;28;20192;-80
2023/06/27 11:42:33;;;;;;;4.50;2.80;;;;;;;;;;5085424;28;20252;-81
2023/06/27 11:44:59;;;;;;;4.80;2.57;;;;;;;;;;5090433;28;20222;-81
2023/06/27 11:47:25;;;;;;;6.73;3.20;;;;;;;;;;5085019;28;20196;-81
2023/06/27 11:49:51;;;;;;;4.60;2.80;;;;;;;;;;5084159;28;20484;-81
2023/06/27 11:52:17;;;;;;;4.27;3.30;;;;;;;;;;5090473;28;20223;-81
2023/06/27 11:54:49;;;;;;;3.07;2.60;;;;;;;;;;5087291;28;20204;-81
2023/06/27 11:57:17;;;;;;;5.63;3.17;;;;;;;;;;5092942;28;20216;-81
2023/06/27 11:59:43;;;;;;;4.93;4.43;;;;;;;;;;5085188;28;20184;-81
2023/06/27 12:02:10;;;;;;;3.60;3.30;;;;;;;;;;5095643;28;20195;-81
2023/06/27 12:04:36;;;;;;;3.27;2.53;;;;;;;;;;5090761;28;20231;-81
2023/06/27 12:07:19;;;;;;;3.20;2.07;;;;;;;;;;5092682;28;20180;-80
2023/06/27 12:09:45;;;;;;;3.33;2.57;;;;;;;;;;5095624;28;20188;-80
2023/06/27 12:12:11;;;;;;;4.07;2.30;;;;;;;;;;5088515;28;20211;-81
2023/06/27 12:14:37;;;;;;;5.03;2.30;;;;;;;;;;5097725;28;20258;-81
2023/06/27 12:17:03;;;;;;;4.17;2.20;;;;;;;;;;5095433;28;20188;-80
2023/06/27 12:19:29;;;;;;;4.90;2.60;;;;;;;;;;5089021;28;20663;-82
2023/06/27 12:21:55;;;;;;;3.07;2.20;;;;;;;;;;5091689;28;20271;-81
2023/06/27 12:24:21;;;;;;;6.57;2.60;;;;;;;;;;5089327;28;20241;-81
2023/06/27 12:26:47;;;;;;;3.73;2.03;;;;;;;;;;5087913;28;20172;-81
2023/06/27 12:29:13;;;;;;;3.17;2.60;;;;;;;;;;5087023;28;20203;-81
2023/06/27 12:31:40;;;;;;;3.90;2.00;;;;;;;;;;5090597;28;20188;-82
2023/06/27 12:34:06;;;;;;;2.90;2.60;;;;;;;;;;5095334;28;20605;-82
2023/06/27 12:36:33;;;;;;;2.80;2.33;;;;;;;;;;5088497;28;20307;-82
2023/06/27 12:38:59;;;;;;;4.37;2.10;;;;;;;;;;5091260;28;20285;-81
2023/06/27 12:41:25;;;;;;;5.10;2.30;;;;;;;;;;5087027;28;21567;-81
2023/06/27 12:43:52;;;;;;;3.90;2.33;;;;;;;;;;5090259;28;20180;-82
2023/06/27 12:46:18;;;;;;;3.17;2.40;;;;;;;;;;5084637;28;20209;-81
2023/06/27 12:48:44;;;;;;;3.63;2.03;;;;;;;;;;5092807;28;20212;-82
2023/06/27 12:51:13;;;;;;;2.20;1.97;;;;;;;;;;5081691;28;20253;-82
2023/06/27 12:53:39;;;;;;;2.07;1.80;;;;;;;;;;5088369;28;20298;-83
2023/06/27 12:56:06;;;;;;;5.30;2.47;;;;;;;;;;5087271;28;20196;-83
2023/06/27 12:58:32;;;;;;;3.50;2.80;;;;;;;;;;5091542;28;20193;-82
2023/06/27 13:01:00;;;;;;;4.27;2.50;;;;;;;;;;5081785;28;20291;-82
2023/06/27 13:03:27;;;;;;;4.77;2.30;;;;;;;;;;5086340;28;20701;-82
2023/06/27 13:05:53;;;;;;;3.77;2.40;;;;;;;;;;5083323;28;20194;-83
2023/06/27 13:08:19;;;;;;;4.40;3.10;;;;;;;;;;5085804;28;20353;-83
2023/06/27 13:10:45;;;;;;;4.13;2.20;;;;;;;;;;5089684;28;20215;-82
2023/06/27 13:13:11;;;;;;;5.13;2.33;;;;;;;;;;5089989;28;20189;-83
2023/06/27 13:15:37;;;;;;;2.93;2.20;;;;;;;;;;5089592;28;20253;-82
2023/06/27 13:18:03;;;;;;;3.87;2.00;;;;;;;;;;5089653;28;20187;-83
2023/06/27 13:20:29;;;;;;;2.47;1.93;;;;;;;;;;5093572;28;20181;-79
2023/06/27 13:22:56;;;;;;;3.13;2.10;;;;;;;;;;5087891;28;20193;-80
2023/06/27 13:25:22;;;;;;;2.37;1.90;;;;;;;;;;5082199;28;20210;-82
2023/06/27 13:27:49;;;;;;;3.00;2.13;;;;;;;;;;5091402;28;20204;-79
2023/06/27 13:30:15;;;;;;;2.33;2.13;;;;;;;;;;5087850;28;20262;-80
2023/06/27 13:32:41;;;;;;;5.33;2.30;;;;;;;;;;5086680;28;21343;-79
2023/06/27 13:35:08;;;;;;;2.13;1.93;;;;;;;;;;5085567;28;20195;-80
2023/06/27 13:37:34;;;;;;;2.27;1.60;;;;;;;;;;5083028;28;20248;-80
2023/06/27 13:40:03;;;;;;;3.07;1.87;;;;;;;;;;5082863;28;20207;-79
2023/06/27 13:42:29;;;;;;;3.37;2.33;;;;;;;;;;5086113;28;20194;-79
2023/06/27 13:44:56;;;;;;;3.53;2.50;;;;;;;;;;5081656;28;20183;-80
2023/06/27 13:47:22;;;;;;;2.97;1.80;;;;;;;;;;5084796;28;20207;-79
2023/06/27 13:49:48;;;;;;;1.83;1.73;;;;;;;;;;5085169;28;20667;-79
2023/06/27 13:52:14;;;;;;;2.33;1.90;;;;;;;;;;5085954;28;20276;-80
2023/06/27 13:54:41;;;;;;;1.70;1.60;;;;;;;;;;5083395;28;20653;-78
2023/06/27 13:57:09;;;;;;;2.37;2.17;;;;;;;;;;5084933;28;20188;-78
2023/06/27 13:59:37;;;;;;;3.00;2.60;;;;;;;;;;5087906;28;20185;-78
2023/06/27 14:02:04;;;;;;;2.00;1.90;;;;;;;;;;5089585;28;20186;-79
2023/06/27 14:04:30;;;;;;;2.10;2.00;;;;;;;;;;5086417;28;20719;-79
2023/06/27 14:06:56;;;;;;;4.57;1.60;;;;;;;;;;5086365;28;20246;-80
2023/06/27 14:09:22;;;;;;;3.93;1.77;;;;;;;;;;5081103;28;21810;-85
2023/06/27 14:11:52;;;;;;;4.47;2.57;;;;;;;;;;5084286;28;20173;-80
2023/06/27 14:14:19;;;;;;;4.57;2.10;;;;;;;;;;5092742;28;20609;-79
2023/06/27 14:16:45;;;;;;;2.20;2.00;;;;;;;;;;5089031;28;20193;-79
2023/06/27 14:19:11;;;;;;;6.50;1.93;;;;;;;;;;5086923;28;20619;-80
2023/06/27 14:21:37;;;;;;;2.70;2.20;;;;;;;;;;5094752;28;20180;-80
2023/06/27 14:24:07;;;;;;;1.90;1.80;;;;;;;;;;5093015;28;20234;-80
2023/06/27 14:26:36;;;;;;;2.47;2.10;;;;;;;;;;5092987;28;20299;-80
2023/06/27 14:29:03;;;;;;;3.10;2.20;;;;;;;;;;5094050;28;20231;-79
2023/06/27 14:31:29;;;;;;;2.23;2.00;;;;;;;;;;5093555;28;20188;-79
2023/06/27 14:33:55;;;;;;;2.30;2.00;;;;;;;;;;5074558;28;20203;-79
2023/06/27 14:36:21;;;;;;;1.97;1.87;;;;;;;;;;5092920;28;20280;-80
2023/06/27 14:38:47;;;;;;;3.10;2.37;;;;;;;;;;5090070;28;20191;-80
2023/06/27 14:41:13;;;;;;;2.80;2.00;;;;;;;;;;5073511;28;20886;-79
2023/06/27 14:43:39;;;;;;;1.87;1.77;;;;;;;;;;5085656;28;20329;-79